sensor_id;sensor_type;location;lat;lon;timestamp;pressure;altitude;pressure_sealevel;temperature;humidity
10706;BME280;5404;42.656;23.336;2022-12-08T00:00:50;94776.00;;;3.79;100.00
10706;BME280;5404;42.656;23.336;2022-12-08T00:03:16;94779.41;;;3.75;100.00
10706;BME280;5404;42.656;23.336;2022-12-08T00:05:48;94779.41;;;3.75;100.00
10706;BME280;5404;42.656;23.336;2022-12-08T00:08:33;94788.34;;;3.74;100.00
10706;BME280;5404;42.656;23.336;2022-12-08T00:11:18;94791.78;;;3.74;100.00
10706;BME280;5404;42.656;23.336;2022-12-08T00:13:44;94801.31;;;3.80;100.00
10706;BME280;5404;42.656;23.336;2022-12-08T00:16:10;94811.66;;;3.87;100.00
10706;BME280;5404;42.656;23.336;2022-12-08T00:18:36;94809.69;;;3.72;100.00
10706;BME280;5404;42.656;23.336;2022-12-08T00:21:03;94815.47;;;3.69;100.00
10706;BME280;5404;42.656;23.336;2022-12-08T00:23:28;94815.03;;;3.82;100.00
10706;BME280;5404;42.656;23.336;2022-12-08T00:25:54;94824.53;;;3.83;100.00
10706;BME280;5404;42.656;23.336;2022-12-08T00:28:19;94809.66;;;3.67;100.00
10706;BME280;5404;42.656;23.336;2022-12-08T00:30:45;94813.38;;;3.71;100.00
10706;BME280;5404;42.656;23.336;2022-12-08T00:33:11;94807.63;;;3.79;100.00
10706;BME280;5404;42.656;23.336;2022-12-08T00:35:37;64459.16;;;-141.35;100.00
10706;BME280;5404;42.656;23.336;2022-12-08T00:38:03;94831.78;;;3.66;100.00
10706;BME280;5404;42.656;23.336;2022-12-08T00:40:29;94823.19;;;3.81;100.00
10706;BME280;5404;42.656;23.336;2022-12-08T00:42:55;94824.25;;;3.80;100.00
10706;BME280;5404;42.656;23.336;2022-12-08T00:45:21;94830.22;;;3.70;100.00
10706;BME280;5404;42.656;23.336;2022-12-08T00:47:47;94825.56;;;3.82;100.00
10706;BME280;5404;42.656;23.336;2022-12-08T00:50:13;94828.28;;;3.92;100.00
10706;BME280;5404;42.656;23.336;2022-12-08T00:52:39;94824.41;;;4.00;100.00
10706;BME280;5404;42.656;23.336;2022-12-08T00:55:05;94835.13;;;3.88;100.00
10706;BME280;5404;42.656;23.336;2022-12-08T00:57:31;94834.53;;;3.81;100.00
10706;BME280;5404;42.656;23.336;2022-12-08T00:59:57;94836.47;;;3.96;100.00
10706;BME280;5404;42.656;23.336;2022-12-08T01:02:23;94830.22;;;4.02;100.00
10706;BME280;5404;42.656;23.336;2022-12-08T01:04:49;94799.72;;;3.79;100.00
10706;BME280;5404;42.656;23.336;2022-12-08T01:07:14;94820.66;;;3.96;100.00
10706;BME280;5404;42.656;23.336;2022-12-08T01:09:40;73825.88;;;-141.35;100.00
10706;BME280;5404;42.656;23.336;2022-12-08T01:12:06;94822.56;;;4.00;100.00
10706;BME280;5404;42.656;23.336;2022-12-08T01:14:33;94815.56;;;4.16;100.00
10706;BME280;5404;42.656;23.336;2022-12-08T01:17:00;94826.41;;;4.24;100.00
10706;BME280;5404;42.656;23.336;2022-12-08T01:19:26;94829.44;;;4.06;100.00
10706;BME280;5404;42.656;23.336;2022-12-08T01:21:51;94834.00;;;4.16;100.00
10706;BME280;5404;42.656;23.336;2022-12-08T01:24:19;94832.66;;;4.13;100.00
10706;BME280;5404;42.656;23.336;2022-12-08T01:26:48;94820.75;;;4.06;100.00
10706;BME280;5404;42.656;23.336;2022-12-08T01:29:14;94825.78;;;4.07;100.00
10706;BME280;5404;42.656;23.336;2022-12-08T01:31:40;94826.81;;;4.06;100.00
10706;BME280;5404;42.656;23.336;2022-12-08T01:34:07;94821.78;;;4.05;100.00
10706;BME280;5404;42.656;23.336;2022-12-08T01:36:34;94823.19;;;4.12;100.00
10706;BME280;5404;42.656;23.336;2022-12-08T01:39:06;94818.75;;;4.23;100.00
10706;BME280;5404;42.656;23.336;2022-12-08T01:41:34;94805.22;;;4.09;100.00
10706;BME280;5404;42.656;23.336;2022-12-08T01:46:46;94802.78;;;4.03;100.00
10706;BME280;5404;42.656;23.336;2022-12-08T01:51:55;94798.84;;;4.00;100.00
10706;BME280;5404;42.656;23.336;2022-12-08T01:54:26;94784.09;;;4.04;100.00
10706;BME280;5404;42.656;23.336;2022-12-08T01:57:26;94788.59;;;4.04;100.00
10706;BME280;5404;42.656;23.336;2022-12-08T02:00:07;94778.78;;;3.99;100.00
10706;BME280;5404;42.656;23.336;2022-12-08T02:02:56;94769.63;;;4.07;100.00
10706;BME280;5404;42.656;23.336;2022-12-08T02:05:26;94770.88;;;3.99;100.00
10706;BME280;5404;42.656;23.336;2022-12-08T02:07:55;94794.09;;;3.97;100.00
10706;BME280;5404;42.656;23.336;2022-12-08T02:10:23;94791.91;;;3.89;100.00
10706;BME280;5404;42.656;23.336;2022-12-08T02:12:53;94791.91;;;3.89;100.00
10706;BME280;5404;42.656;23.336;2022-12-08T02:15:36;94784.97;;;3.78;100.00
10706;BME280;5404;42.656;23.336;2022-12-08T02:23:23;94781.75;;;3.71;100.00
10706;BME280;5404;42.656;23.336;2022-12-08T02:34:14;64459.16;;;-141.35;100.00
10706;BME280;5404;42.656;23.336;2022-12-08T02:39:54;64459.16;;;-141.35;100.00
10706;BME280;5404;42.656;23.336;2022-12-08T02:47:36;64459.16;;;-141.35;100.00
10706;BME280;5404;42.656;23.336;2022-12-08T02:50:03;64459.16;;;-141.35;100.00
10706;BME280;5404;42.656;23.336;2022-12-08T03:04:00;64459.16;;;-141.35;100.00
10706;BME280;5404;42.656;23.336;2022-12-08T03:12:18;64459.16;;;-141.35;100.00
10706;BME280;5404;42.656;23.336;2022-12-08T03:14:48;64459.16;;;-141.35;100.00
10706;BME280;5404;42.656;23.336;2022-12-08T03:17:16;64459.16;;;-141.35;100.00
10706;BME280;5404;42.656;23.336;2022-12-08T03:19:45;64459.16;;;-141.35;100.00
10706;BME280;5404;42.656;23.336;2022-12-08T03:22:12;64459.16;;;-141.35;100.00
10706;BME280;5404;42.656;23.336;2022-12-08T03:24:42;64459.16;;;-141.35;100.00
10706;BME280;5404;42.656;23.336;2022-12-08T03:27:19;64459.16;;;-141.35;100.00
10706;BME280;5404;42.656;23.336;2022-12-08T03:29:51;64459.16;;;-141.35;100.00
10706;BME280;5404;42.656;23.336;2022-12-08T03:32:59;64459.16;;;-141.35;100.00
10706;BME280;5404;42.656;23.336;2022-12-08T03:35:24;64459.16;;;-141.35;100.00
10706;BME280;5404;42.656;23.336;2022-12-08T03:37:51;64459.16;;;-141.35;100.00
10706;BME280;5404;42.656;23.336;2022-12-08T03:40:25;64459.16;;;-141.35;100.00
10706;BME280;5404;42.656;23.336;2022-12-08T03:42:51;64459.16;;;-141.35;100.00
10706;BME280;5404;42.656;23.336;2022-12-08T03:45:17;64459.16;;;-141.35;100.00
10706;BME280;5404;42.656;23.336;2022-12-08T03:47:43;64459.16;;;-141.35;100.00
10706;BME280;5404;42.656;23.336;2022-12-08T03:50:09;64459.16;;;-141.35;100.00
10706;BME280;5404;42.656;23.336;2022-12-08T03:52:34;64459.16;;;-141.35;100.00
10706;BME280;5404;42.656;23.336;2022-12-08T03:55:00;64459.16;;;-141.35;100.00
10706;BME280;5404;42.656;23.336;2022-12-08T03:57:25;64459.16;;;-141.35;100.00
10706;BME280;5404;42.656;23.336;2022-12-08T03:59:51;64459.16;;;-141.35;100.00
10706;BME280;5404;42.656;23.336;2022-12-08T04:02:17;64459.16;;;-141.35;100.00
10706;BME280;5404;42.656;23.336;2022-12-08T04:04:43;64459.16;;;-141.35;100.00
10706;BME280;5404;42.656;23.336;2022-12-08T04:07:08;64459.16;;;-141.35;100.00
10706;BME280;5404;42.656;23.336;2022-12-08T04:09:34;64459.16;;;-141.35;100.00
10706;BME280;5404;42.656;23.336;2022-12-08T04:11:59;64459.16;;;-141.35;100.00
10706;BME280;5404;42.656;23.336;2022-12-08T04:14:25;64459.16;;;-141.35;100.00
10706;BME280;5404;42.656;23.336;2022-12-08T04:16:50;64459.16;;;-141.35;100.00
10706;BME280;5404;42.656;23.336;2022-12-08T04:19:15;64459.16;;;-141.35;100.00
10706;BME280;5404;42.656;23.336;2022-12-08T04:21:41;64459.16;;;-141.35;100.00
10706;BME280;5404;42.656;23.336;2022-12-08T04:24:06;64459.16;;;-141.35;100.00
10706;BME280;5404;42.656;23.336;2022-12-08T04:26:32;64459.16;;;-141.35;100.00
10706;BME280;5404;42.656;23.336;2022-12-08T04:28:57;64459.16;;;-141.35;100.00
10706;BME280;5404;42.656;23.336;2022-12-08T04:31:23;64459.16;;;-141.35;100.00
10706;BME280;5404;42.656;23.336;2022-12-08T04:33:48;64459.16;;;-141.35;100.00
10706;BME280;5404;42.656;23.336;2022-12-08T04:36:15;64459.16;;;-141.35;100.00
10706;BME280;5404;42.656;23.336;2022-12-08T04:38:40;64459.16;;;-141.35;100.00
10706;BME280;5404;42.656;23.336;2022-12-08T04:41:06;64459.16;;;-141.35;100.00
10706;BME280;5404;42.656;23.336;2022-12-08T04:43:31;64459.16;;;-141.35;100.00
10706;BME280;5404;42.656;23.336;2022-12-08T04:45:58;64459.16;;;-141.35;100.00
10706;BME280;5404;42.656;23.336;2022-12-08T04:48:23;64459.16;;;-141.35;100.00
10706;BME280;5404;42.656;23.336;2022-12-08T04:50:50;64459.16;;;-141.35;100.00
10706;BME280;5404;42.656;23.336;2022-12-08T04:53:16;64459.16;;;-141.35;100.00
10706;BME280;5404;42.656;23.336;2022-12-08T04:55:43;64459.16;;;-141.35;100.00
10706;BME280;5404;42.656;23.336;2022-12-08T04:58:13;64459.16;;;-141.35;100.00
10706;BME280;5404;42.656;23.336;2022-12-08T05:00:39;64459.16;;;-141.35;100.00
10706;BME280;5404;42.656;23.336;2022-12-08T05:03:05;64459.16;;;-141.35;100.00
10706;BME280;5404;42.656;23.336;2022-12-08T05:05:31;64459.16;;;-141.35;100.00
10706;BME280;5404;42.656;23.336;2022-12-08T05:07:57;64459.16;;;-141.35;100.00
10706;BME280;5404;42.656;23.336;2022-12-08T05:10:22;64459.16;;;-141.35;100.00
10706;BME280;5404;42.656;23.336;2022-12-08T05:12:48;64459.16;;;-141.35;100.00
10706;BME280;5404;42.656;23.336;2022-12-08T05:15:13;64459.16;;;-141.35;100.00
10706;BME280;5404;42.656;23.336;2022-12-08T05:17:39;64459.16;;;-141.35;100.00
10706;BME280;5404;42.656;23.336;2022-12-08T05:20:05;64459.16;;;-141.35;100.00
10706;BME280;5404;42.656;23.336;2022-12-08T05:22:32;64459.16;;;-141.35;100.00
10706;BME280;5404;42.656;23.336;2022-12-08T05:24:58;64459.16;;;-141.35;100.00
10706;BME280;5404;42.656;23.336;2022-12-08T05:27:26;64459.16;;;-141.35;100.00
10706;BME280;5404;42.656;23.336;2022-12-08T05:29:52;64459.16;;;-141.35;100.00
10706;BME280;5404;42.656;23.336;2022-12-08T05:32:17;64459.16;;;-141.35;100.00
10706;BME280;5404;42.656;23.336;2022-12-08T05:34:43;64459.16;;;-141.35;100.00
10706;BME280;5404;42.656;23.336;2022-12-08T05:37:10;64459.16;;;-141.35;100.00
10706;BME280;5404;42.656;23.336;2022-12-08T05:39:36;64459.16;;;-141.35;100.00
10706;BME280;5404;42.656;23.336;2022-12-08T05:42:02;64459.16;;;-141.35;100.00
10706;BME280;5404;42.656;23.336;2022-12-08T05:44:28;64459.16;;;-141.35;100.00
10706;BME280;5404;42.656;23.336;2022-12-08T05:46:54;64459.16;;;-141.35;100.00
10706;BME280;5404;42.656;23.336;2022-12-08T05:49:20;64459.16;;;-141.35;100.00
10706;BME280;5404;42.656;23.336;2022-12-08T05:51:45;64459.16;;;-141.35;100.00
10706;BME280;5404;42.656;23.336;2022-12-08T05:54:12;64459.16;;;-141.35;100.00
10706;BME280;5404;42.656;23.336;2022-12-08T05:56:38;64459.16;;;-141.35;100.00
10706;BME280;5404;42.656;23.336;2022-12-08T05:59:05;64459.16;;;-141.35;100.00
10706;BME280;5404;42.656;23.336;2022-12-08T06:01:31;64459.16;;;-141.35;100.00
10706;BME280;5404;42.656;23.336;2022-12-08T06:03:59;64459.16;;;-141.35;100.00
10706;BME280;5404;42.656;23.336;2022-12-08T06:06:26;64459.16;;;-141.35;100.00
10706;BME280;5404;42.656;23.336;2022-12-08T06:08:52;64459.16;;;-141.35;100.00
10706;BME280;5404;42.656;23.336;2022-12-08T06:11:19;64459.16;;;-141.35;100.00
10706;BME280;5404;42.656;23.336;2022-12-08T06:13:45;64459.16;;;-141.35;100.00
10706;BME280;5404;42.656;23.336;2022-12-08T06:16:11;64459.16;;;-141.35;100.00
10706;BME280;5404;42.656;23.336;2022-12-08T06:18:36;64459.16;;;-141.35;100.00
10706;BME280;5404;42.656;23.336;2022-12-08T06:21:08;64459.16;;;-141.35;100.00
10706;BME280;5404;42.656;23.336;2022-12-08T06:23:33;64459.16;;;-141.35;100.00
10706;BME280;5404;42.656;23.336;2022-12-08T06:26:05;64459.16;;;-141.35;100.00
10706;BME280;5404;42.656;23.336;2022-12-08T06:28:30;64459.16;;;-141.35;100.00
10706;BME280;5404;42.656;23.336;2022-12-08T06:30:57;64459.16;;;-141.35;100.00
10706;BME280;5404;42.656;23.336;2022-12-08T06:33:23;64459.16;;;-141.35;100.00
10706;BME280;5404;42.656;23.336;2022-12-08T06:35:50;64459.16;;;-141.35;100.00
10706;BME280;5404;42.656;23.336;2022-12-08T06:38:16;64459.16;;;-141.35;100.00
10706;BME280;5404;42.656;23.336;2022-12-08T06:40:43;64459.16;;;-141.35;100.00
10706;BME280;5404;42.656;23.336;2022-12-08T06:43:09;64459.16;;;-141.35;100.00
10706;BME280;5404;42.656;23.336;2022-12-08T06:45:34;64459.16;;;-141.35;100.00
10706;BME280;5404;42.656;23.336;2022-12-08T06:48:01;64459.16;;;-141.35;100.00
10706;BME280;5404;42.656;23.336;2022-12-08T06:50:27;64459.16;;;-141.35;100.00
10706;BME280;5404;42.656;23.336;2022-12-08T06:52:52;64459.16;;;-141.35;100.00
10706;BME280;5404;42.656;23.336;2022-12-08T06:55:18;64459.16;;;-141.35;100.00
10706;BME280;5404;42.656;23.336;2022-12-08T06:57:43;64459.16;;;-141.35;100.00
10706;BME280;5404;42.656;23.336;2022-12-08T07:00:09;64459.16;;;-141.35;100.00
10706;BME280;5404;42.656;23.336;2022-12-08T07:02:35;64459.16;;;-141.35;100.00
10706;BME280;5404;42.656;23.336;2022-12-08T07:05:00;64459.16;;;-141.35;100.00
10706;BME280;5404;42.656;23.336;2022-12-08T07:07:26;64459.16;;;-141.35;100.00
10706;BME280;5404;42.656;23.336;2022-12-08T07:09:51;64459.16;;;-141.35;100.00
10706;BME280;5404;42.656;23.336;2022-12-08T07:12:18;64459.16;;;-141.35;100.00
10706;BME280;5404;42.656;23.336;2022-12-08T07:14:44;64459.16;;;-141.35;100.00
10706;BME280;5404;42.656;23.336;2022-12-08T07:17:14;64459.16;;;-141.35;100.00
10706;BME280;5404;42.656;23.336;2022-12-08T07:19:39;64459.16;;;-141.35;100.00
10706;BME280;5404;42.656;23.336;2022-12-08T07:22:05;64459.16;;;-141.35;100.00
10706;BME280;5404;42.656;23.336;2022-12-08T07:24:31;64459.16;;;-141.35;100.00
10706;BME280;5404;42.656;23.336;2022-12-08T07:26:57;64459.16;;;-141.35;100.00
10706;BME280;5404;42.656;23.336;2022-12-08T07:29:22;64459.16;;;-141.35;100.00
10706;BME280;5404;42.656;23.336;2022-12-08T07:31:48;64459.16;;;-141.35;100.00
10706;BME280;5404;42.656;23.336;2022-12-08T07:34:14;64459.16;;;-141.35;100.00
10706;BME280;5404;42.656;23.336;2022-12-08T07:36:39;64459.16;;;-141.35;100.00
10706;BME280;5404;42.656;23.336;2022-12-08T07:39:05;64459.16;;;-141.35;100.00
10706;BME280;5404;42.656;23.336;2022-12-08T07:41:33;64459.16;;;-141.35;100.00
10706;BME280;5404;42.656;23.336;2022-12-08T07:43:58;64459.16;;;-141.35;100.00
10706;BME280;5404;42.656;23.336;2022-12-08T07:46:25;64459.16;;;-141.35;100.00
10706;BME280;5404;42.656;23.336;2022-12-08T07:48:52;64459.16;;;-141.35;100.00
10706;BME280;5404;42.656;23.336;2022-12-08T07:51:19;64459.16;;;-141.35;100.00
10706;BME280;5404;42.656;23.336;2022-12-08T07:53:47;64459.16;;;-141.35;100.00
10706;BME280;5404;42.656;23.336;2022-12-08T07:56:13;64459.16;;;-141.35;100.00
10706;BME280;5404;42.656;23.336;2022-12-08T07:58:40;64459.16;;;-141.35;100.00
10706;BME280;5404;42.656;23.336;2022-12-08T08:01:14;64459.16;;;-141.35;100.00
10706;BME280;5404;42.656;23.336;2022-12-08T08:03:41;64459.16;;;-141.35;100.00
10706;BME280;5404;42.656;23.336;2022-12-08T08:06:07;64459.16;;;-141.35;100.00
10706;BME280;5404;42.656;23.336;2022-12-08T08:08:32;64459.16;;;-141.35;100.00
10706;BME280;5404;42.656;23.336;2022-12-08T08:10:59;64459.16;;;-141.35;100.00
10706;BME280;5404;42.656;23.336;2022-12-08T08:13:25;64459.16;;;-141.35;100.00
10706;BME280;5404;42.656;23.336;2022-12-08T08:15:52;64459.16;;;-141.35;100.00
10706;BME280;5404;42.656;23.336;2022-12-08T08:18:17;64459.16;;;-141.35;100.00
10706;BME280;5404;42.656;23.336;2022-12-08T08:20:42;64459.16;;;-141.35;100.00
10706;BME280;5404;42.656;23.336;2022-12-08T08:23:08;64459.16;;;-141.35;100.00
10706;BME280;5404;42.656;23.336;2022-12-08T08:25:33;64459.16;;;-141.35;100.00
10706;BME280;5404;42.656;23.336;2022-12-08T08:27:59;64459.16;;;-141.35;100.00
10706;BME280;5404;42.656;23.336;2022-12-08T08:30:24;64459.16;;;-141.35;100.00
10706;BME280;5404;42.656;23.336;2022-12-08T08:32:50;64459.16;;;-141.35;100.00
10706;BME280;5404;42.656;23.336;2022-12-08T08:35:16;64459.16;;;-141.35;100.00
10706;BME280;5404;42.656;23.336;2022-12-08T08:37:42;64459.16;;;-141.35;100.00
10706;BME280;5404;42.656;23.336;2022-12-08T08:40:08;64459.16;;;-141.35;100.00
10706;BME280;5404;42.656;23.336;2022-12-08T08:42:33;64459.16;;;-141.35;100.00
10706;BME280;5404;42.656;23.336;2022-12-08T08:44:59;64459.16;;;-141.35;100.00
10706;BME280;5404;42.656;23.336;2022-12-08T08:47:24;64459.16;;;-141.35;100.00
10706;BME280;5404;42.656;23.336;2022-12-08T08:49:49;64459.16;;;-141.35;100.00
10706;BME280;5404;42.656;23.336;2022-12-08T08:52:16;64459.16;;;-141.35;100.00
10706;BME280;5404;42.656;23.336;2022-12-08T08:54:42;64459.16;;;-141.35;100.00
10706;BME280;5404;42.656;23.336;2022-12-08T08:57:13;64459.16;;;-141.35;100.00
10706;BME280;5404;42.656;23.336;2022-12-08T08:59:39;64459.16;;;-141.35;100.00
10706;BME280;5404;42.656;23.336;2022-12-08T09:02:04;64459.16;;;-141.35;100.00
10706;BME280;5404;42.656;23.336;2022-12-08T09:04:31;64459.16;;;-141.35;100.00
10706;BME280;5404;42.656;23.336;2022-12-08T09:06:56;64459.16;;;-141.35;100.00
10706;BME280;5404;42.656;23.336;2022-12-08T09:09:23;64459.16;;;-141.35;100.00
10706;BME280;5404;42.656;23.336;2022-12-08T09:11:50;64459.16;;;-141.35;100.00
10706;BME280;5404;42.656;23.336;2022-12-08T09:14:16;64459.16;;;-141.35;100.00
10706;BME280;5404;42.656;23.336;2022-12-08T09:16:42;64459.16;;;-141.35;100.00
10706;BME280;5404;42.656;23.336;2022-12-08T09:19:08;64459.16;;;-141.35;100.00
10706;BME280;5404;42.656;23.336;2022-12-08T09:21:34;64459.16;;;-141.35;100.00
10706;BME280;5404;42.656;23.336;2022-12-08T09:24:00;64459.16;;;-141.35;100.00
10706;BME280;5404;42.656;23.336;2022-12-08T09:26:28;64459.16;;;-141.35;100.00
10706;BME280;5404;42.656;23.336;2022-12-08T09:28:55;64459.16;;;-141.35;100.00
10706;BME280;5404;42.656;23.336;2022-12-08T09:31:22;64459.16;;;-141.35;100.00
10706;BME280;5404;42.656;23.336;2022-12-08T09:33:48;64459.16;;;-141.35;100.00
10706;BME280;5404;42.656;23.336;2022-12-08T09:36:16;64459.16;;;-141.35;100.00
10706;BME280;5404;42.656;23.336;2022-12-08T09:38:43;64459.16;;;-141.35;100.00
10706;BME280;5404;42.656;23.336;2022-12-08T09:46:37;64459.16;;;-141.35;100.00
10706;BME280;5404;42.656;23.336;2022-12-08T09:49:03;64459.16;;;-141.35;100.00
10706;BME280;5404;42.656;23.336;2022-12-08T09:51:36;64459.16;;;-141.35;100.00
10706;BME280;5404;42.656;23.336;2022-12-08T09:54:08;64459.16;;;-141.35;100.00
10706;BME280;5404;42.656;23.336;2022-12-08T09:56:37;64459.16;;;-141.35;100.00
10706;BME280;5404;42.656;23.336;2022-12-08T10:01:36;64459.16;;;-141.35;100.00
10706;BME280;5404;42.656;23.336;2022-12-08T10:14:43;64459.16;;;-141.35;100.00
10706;BME280;5404;42.656;23.336;2022-12-08T10:19:43;64459.16;;;-141.35;100.00
10706;BME280;5404;42.656;23.336;2022-12-08T10:22:19;64459.16;;;-141.35;100.00
10706;BME280;5404;42.656;23.336;2022-12-08T10:24:54;64459.16;;;-141.35;100.00
10706;BME280;5404;42.656;23.336;2022-12-08T10:27:22;64459.16;;;-141.35;100.00
10706;BME280;5404;42.656;23.336;2022-12-08T10:29:48;64459.16;;;-141.35;100.00
10706;BME280;5404;42.656;23.336;2022-12-08T10:32:19;64459.16;;;-141.35;100.00
10706;BME280;5404;42.656;23.336;2022-12-08T10:35:08;64459.16;;;-141.35;100.00
10706;BME280;5404;42.656;23.336;2022-12-08T10:37:36;64459.16;;;-141.35;100.00
10706;BME280;5404;42.656;23.336;2022-12-08T10:40:10;64459.16;;;-141.35;100.00
10706;BME280;5404;42.656;23.336;2022-12-08T10:42:45;64459.16;;;-141.35;100.00
10706;BME280;5404;42.656;23.336;2022-12-08T10:47:59;64459.16;;;-141.35;100.00
10706;BME280;5404;42.656;23.336;2022-12-08T10:55:46;64459.16;;;-141.35;100.00
10706;BME280;5404;42.656;23.336;2022-12-08T11:00:57;64459.16;;;-141.35;100.00
10706;BME280;5404;42.656;23.336;2022-12-08T11:04:19;64459.16;;;-141.35;100.00
10706;BME280;5404;42.656;23.336;2022-12-08T11:06:47;64459.16;;;-141.35;100.00
10706;BME280;5404;42.656;23.336;2022-12-08T11:14:23;64459.16;;;-141.35;100.00
10706;BME280;5404;42.656;23.336;2022-12-08T11:16:53;64459.16;;;-141.35;100.00
10706;BME280;5404;42.656;23.336;2022-12-08T11:19:20;64459.16;;;-141.35;100.00
10706;BME280;5404;42.656;23.336;2022-12-08T11:21:47;64459.16;;;-141.35;100.00
10706;BME280;5404;42.656;23.336;2022-12-08T11:24:22;64459.16;;;-141.35;100.00
10706;BME280;5404;42.656;23.336;2022-12-08T11:26:51;64459.16;;;-141.35;100.00
10706;BME280;5404;42.656;23.336;2022-12-08T11:29:19;64459.16;;;-141.35;100.00
10706;BME280;5404;42.656;23.336;2022-12-08T11:31:51;64459.16;;;-141.35;100.00
10706;BME280;5404;42.656;23.336;2022-12-08T11:35:04;64459.16;;;-141.35;100.00
10706;BME280;5404;42.656;23.336;2022-12-08T11:37:28;64459.16;;;-141.35;100.00
10706;BME280;5404;42.656;23.336;2022-12-08T11:39:57;64459.16;;;-141.35;100.00
10706;BME280;5404;42.656;23.336;2022-12-08T11:42:30;64459.16;;;-141.35;100.00
10706;BME280;5404;42.656;23.336;2022-12-08T11:45:00;64459.16;;;-141.35;100.00
10706;BME280;5404;42.656;23.336;2022-12-08T11:47:34;64459.16;;;-141.35;100.00
10706;BME280;5404;42.656;23.336;2022-12-08T11:50:21;64459.16;;;-141.35;100.00
10706;BME280;5404;42.656;23.336;2022-12-08T11:52:51;64459.16;;;-141.35;100.00
10706;BME280;5404;42.656;23.336;2022-12-08T11:55:25;64459.16;;;-141.35;100.00
10706;BME280;5404;42.656;23.336;2022-12-08T11:57:58;64459.16;;;-141.35;100.00
10706;BME280;5404;42.656;23.336;2022-12-08T12:00:26;64459.16;;;-141.35;100.00
10706;BME280;5404;42.656;23.336;2022-12-08T12:03:00;64459.16;;;-141.35;100.00
10706;BME280;5404;42.656;23.336;2022-12-08T12:08:33;64459.16;;;-141.35;100.00
10706;BME280;5404;42.656;23.336;2022-12-08T12:14:54;64459.16;;;-141.35;100.00
10706;BME280;5404;42.656;23.336;2022-12-08T12:17:38;64459.16;;;-141.35;100.00
10706;BME280;5404;42.656;23.336;2022-12-08T12:20:18;64459.16;;;-141.35;100.00
10706;BME280;5404;42.656;23.336;2022-12-08T12:22:48;64459.16;;;-141.35;100.00
10706;BME280;5404;42.656;23.336;2022-12-08T12:25:21;64459.16;;;-141.35;100.00
10706;BME280;5404;42.656;23.336;2022-12-08T12:27:49;64459.16;;;-141.35;100.00
10706;BME280;5404;42.656;23.336;2022-12-08T12:30:27;64459.16;;;-141.35;100.00
10706;BME280;5404;42.656;23.336;2022-12-08T12:32:58;64459.16;;;-141.35;100.00
10706;BME280;5404;42.656;23.336;2022-12-08T12:35:32;64459.16;;;-141.35;100.00
10706;BME280;5404;42.656;23.336;2022-12-08T12:38:04;64459.16;;;-141.35;100.00
10706;BME280;5404;42.656;23.336;2022-12-08T12:40:58;64459.16;;;-141.35;100.00
10706;BME280;5404;42.656;23.336;2022-12-08T12:43:30;64459.16;;;-141.35;100.00
10706;BME280;5404;42.656;23.336;2022-12-08T12:48:48;64459.16;;;-141.35;100.00
10706;BME280;5404;42.656;23.336;2022-12-08T12:51:43;64459.16;;;-141.35;100.00
10706;BME280;5404;42.656;23.336;2022-12-08T12:54:23;64459.16;;;-141.35;100.00
10706;BME280;5404;42.656;23.336;2022-12-08T12:56:52;64459.16;;;-141.35;100.00
10706;BME280;5404;42.656;23.336;2022-12-08T13:01:54;64459.16;;;-141.35;100.00
10706;BME280;5404;42.656;23.336;2022-12-08T13:04:29;64459.16;;;-141.35;100.00
10706;BME280;5404;42.656;23.336;2022-12-08T13:06:57;64459.16;;;-141.35;100.00
10706;BME280;5404;42.656;23.336;2022-12-08T13:09:37;64459.16;;;-141.35;100.00
10706;BME280;5404;42.656;23.336;2022-12-08T13:12:09;64459.16;;;-141.35;100.00
10706;BME280;5404;42.656;23.336;2022-12-08T13:14:48;64459.16;;;-141.35;100.00
10706;BME280;5404;42.656;23.336;2022-12-08T13:17:30;64459.16;;;-141.35;100.00
10706;BME280;5404;42.656;23.336;2022-12-08T13:19:58;64459.16;;;-141.35;100.00
10706;BME280;5404;42.656;23.336;2022-12-08T13:28:17;64459.16;;;-141.35;100.00
10706;BME280;5404;42.656;23.336;2022-12-08T13:30:44;64459.16;;;-141.35;100.00
10706;BME280;5404;42.656;23.336;2022-12-08T13:33:18;64459.16;;;-141.35;100.00
10706;BME280;5404;42.656;23.336;2022-12-08T13:36:04;64459.16;;;-141.35;100.00
10706;BME280;5404;42.656;23.336;2022-12-08T13:38:35;64459.16;;;-141.35;100.00
10706;BME280;5404;42.656;23.336;2022-12-08T13:41:15;64459.16;;;-141.35;100.00
10706;BME280;5404;42.656;23.336;2022-12-08T13:43:46;64459.16;;;-141.35;100.00
10706;BME280;5404;42.656;23.336;2022-12-08T13:46:15;64459.16;;;-141.35;100.00
10706;BME280;5404;42.656;23.336;2022-12-08T13:48:51;64459.16;;;-141.35;100.00
10706;BME280;5404;42.656;23.336;2022-12-08T13:51:22;64459.16;;;-141.35;100.00
10706;BME280;5404;42.656;23.336;2022-12-08T13:54:04;64459.16;;;-141.35;100.00
10706;BME280;5404;42.656;23.336;2022-12-08T13:56:35;64459.16;;;-141.35;100.00
10706;BME280;5404;42.656;23.336;2022-12-08T14:01:53;64459.16;;;-141.35;100.00
10706;BME280;5404;42.656;23.336;2022-12-08T14:04:25;64459.16;;;-141.35;100.00
10706;BME280;5404;42.656;23.336;2022-12-08T14:07:00;64459.16;;;-141.35;100.00
10706;BME280;5404;42.656;23.336;2022-12-08T14:09:32;64459.16;;;-141.35;100.00
10706;BME280;5404;42.656;23.336;2022-12-08T14:12:03;64459.16;;;-141.35;100.00
10706;BME280;5404;42.656;23.336;2022-12-08T14:14:42;64459.16;;;-141.35;100.00
10706;BME280;5404;42.656;23.336;2022-12-08T14:17:14;64459.16;;;-141.35;100.00
10706;BME280;5404;42.656;23.336;2022-12-08T14:19:42;64459.16;;;-141.35;100.00
10706;BME280;5404;42.656;23.336;2022-12-08T14:22:12;64459.16;;;-141.35;100.00
10706;BME280;5404;42.656;23.336;2022-12-08T14:24:38;64459.16;;;-141.35;100.00
10706;BME280;5404;42.656;23.336;2022-12-08T14:27:12;64459.16;;;-141.35;100.00